KEVU

Northwest Missouri Regional Airport

Maryville, Missouri, USA
METAR KEVU 180155Z AUTO 01003KT 10SM CLR 23/15 A3005 RMK AO2
Observed Flight Rules
Aug-18 @ 01:55 UTC (33 minutes ago) Visual Flight Rules
Wind Visibility Clouds
10° at 3 knots 10 miles
  • Clear skies
Temperatures Readings
Current 23°C / 73°F
Dewpoint 15°C / 59°F
Humidity 61%
Altimeter 30.05" Hg
Pressure 1018 hPa
Elevation 349
METAR KEVU 180155Z AUTO 01003KT 10SM CLR 23/15 A3005 RMK AO2
Observed Flight Rules
Aug-18 @ 01:55 UTC
(33 minutes ago)
VFR
Wind Visibility
10° at 3 knots 10 miles
Clouds
  • Clear skies
Temperature Dewpoint
23°C / 73°F 15°C / 59°F
Humidity Altimeter Pressure
61% 30.05" Hg 1018 hPa